sensor_id;sensor_type;location;lat;lon;timestamp;temperature;humidity
15072;DHT22;7635;56.696;13.002;2022-08-19T00:01:12;18.60;99.90
15072;DHT22;7635;56.696;13.002;2022-08-19T00:03:39;18.60;99.90
15072;DHT22;7635;56.696;13.002;2022-08-19T00:06:07;18.50;99.90
15072;DHT22;7635;56.696;13.002;2022-08-19T00:08:35;18.50;99.90
15072;DHT22;7635;56.696;13.002;2022-08-19T00:11:01;18.40;99.90
15072;DHT22;7635;56.696;13.002;2022-08-19T00:13:28;18.40;99.90
15072;DHT22;7635;56.696;13.002;2022-08-19T00:15:55;18.40;99.90
15072;DHT22;7635;56.696;13.002;2022-08-19T00:18:24;18.40;99.90
15072;DHT22;7635;56.696;13.002;2022-08-19T00:20:51;18.40;99.90
15072;DHT22;7635;56.696;13.002;2022-08-19T00:23:19;18.30;99.90
15072;DHT22;7635;56.696;13.002;2022-08-19T00:25:46;18.30;99.90
15072;DHT22;7635;56.696;13.002;2022-08-19T00:28:13;18.30;99.90
15072;DHT22;7635;56.696;13.002;2022-08-19T00:30:40;18.20;99.90
15072;DHT22;7635;56.696;13.002;2022-08-19T00:33:06;18.20;99.90
15072;DHT22;7635;56.696;13.002;2022-08-19T00:35:33;18.20;99.90
15072;DHT22;7635;56.696;13.002;2022-08-19T00:38:00;18.20;99.90
15072;DHT22;7635;56.696;13.002;2022-08-19T00:40:28;18.20;99.90
15072;DHT22;7635;56.696;13.002;2022-08-19T00:42:56;18.20;99.90
15072;DHT22;7635;56.696;13.002;2022-08-19T00:45:25;18.20;99.90
15072;DHT22;7635;56.696;13.002;2022-08-19T00:47:52;18.20;99.90
15072;DHT22;7635;56.696;13.002;2022-08-19T00:50:20;18.30;99.90
15072;DHT22;7635;56.696;13.002;2022-08-19T00:52:49;18.20;99.90
15072;DHT22;7635;56.696;13.002;2022-08-19T00:55:19;18.20;99.90
15072;DHT22;7635;56.696;13.002;2022-08-19T00:57:53;18.30;99.90
15072;DHT22;7635;56.696;13.002;2022-08-19T01:00:24;18.30;99.90
15072;DHT22;7635;56.696;13.002;2022-08-19T01:02:52;18.30;99.90
15072;DHT22;7635;56.696;13.002;2022-08-19T01:05:21;18.30;99.90
15072;DHT22;7635;56.696;13.002;2022-08-19T01:07:49;18.30;99.90
15072;DHT22;7635;56.696;13.002;2022-08-19T01:10:20;18.30;99.90
15072;DHT22;7635;56.696;13.002;2022-08-19T01:12:49;18.30;99.90
15072;DHT22;7635;56.696;13.002;2022-08-19T01:15:19;18.30;99.90
15072;DHT22;7635;56.696;13.002;2022-08-19T01:17:47;18.30;99.90
15072;DHT22;7635;56.696;13.002;2022-08-19T01:20:17;18.30;99.90
15072;DHT22;7635;56.696;13.002;2022-08-19T01:22:48;18.30;99.90
15072;DHT22;7635;56.696;13.002;2022-08-19T01:25:17;18.40;99.90
15072;DHT22;7635;56.696;13.002;2022-08-19T01:27:47;18.30;99.90
15072;DHT22;7635;56.696;13.002;2022-08-19T01:30:16;18.40;99.90
15072;DHT22;7635;56.696;13.002;2022-08-19T01:32:44;18.40;99.90
15072;DHT22;7635;56.696;13.002;2022-08-19T01:35:12;18.40;99.90
15072;DHT22;7635;56.696;13.002;2022-08-19T01:37:49;18.30;99.90
15072;DHT22;7635;56.696;13.002;2022-08-19T01:40:17;18.30;99.90
15072;DHT22;7635;56.696;13.002;2022-08-19T01:42:45;18.30;99.90
15072;DHT22;7635;56.696;13.002;2022-08-19T01:45:13;18.30;99.90
15072;DHT22;7635;56.696;13.002;2022-08-19T01:47:40;18.30;99.90
15072;DHT22;7635;56.696;13.002;2022-08-19T01:50:09;18.30;99.90
15072;DHT22;7635;56.696;13.002;2022-08-19T01:52:36;18.30;99.90
15072;DHT22;7635;56.696;13.002;2022-08-19T01:55:07;18.30;99.90
15072;DHT22;7635;56.696;13.002;2022-08-19T01:57:34;18.30;99.90
15072;DHT22;7635;56.696;13.002;2022-08-19T02:00:04;18.40;99.90
15072;DHT22;7635;56.696;13.002;2022-08-19T02:02:31;18.40;99.90
15072;DHT22;7635;56.696;13.002;2022-08-19T02:04:58;18.40;99.90
15072;DHT22;7635;56.696;13.002;2022-08-19T02:07:25;18.40;99.90
15072;DHT22;7635;56.696;13.002;2022-08-19T02:09:53;18.40;99.90
15072;DHT22;7635;56.696;13.002;2022-08-19T02:12:22;18.40;99.90
15072;DHT22;7635;56.696;13.002;2022-08-19T02:14:49;18.40;99.90
15072;DHT22;7635;56.696;13.002;2022-08-19T02:17:15;18.50;99.90
15072;DHT22;7635;56.696;13.002;2022-08-19T02:19:43;18.40;99.90
15072;DHT22;7635;56.696;13.002;2022-08-19T02:22:10;18.50;99.90
15072;DHT22;7635;56.696;13.002;2022-08-19T02:24:37;18.40;99.90
15072;DHT22;7635;56.696;13.002;2022-08-19T02:27:04;18.40;99.90
15072;DHT22;7635;56.696;13.002;2022-08-19T02:29:32;18.50;99.90
15072;DHT22;7635;56.696;13.002;2022-08-19T02:31:59;18.40;99.90
15072;DHT22;7635;56.696;13.002;2022-08-19T02:34:26;18.40;99.90
15072;DHT22;7635;56.696;13.002;2022-08-19T02:36:52;18.40;99.90
15072;DHT22;7635;56.696;13.002;2022-08-19T02:39:19;18.40;99.90
15072;DHT22;7635;56.696;13.002;2022-08-19T02:41:45;18.50;99.90
15072;DHT22;7635;56.696;13.002;2022-08-19T02:44:12;18.50;99.90
15072;DHT22;7635;56.696;13.002;2022-08-19T02:46:40;18.50;99.90
15072;DHT22;7635;56.696;13.002;2022-08-19T02:49:07;18.50;99.90
15072;DHT22;7635;56.696;13.002;2022-08-19T02:51:36;18.50;99.90
15072;DHT22;7635;56.696;13.002;2022-08-19T02:54:05;18.50;99.90
15072;DHT22;7635;56.696;13.002;2022-08-19T02:56:35;18.50;99.90
15072;DHT22;7635;56.696;13.002;2022-08-19T02:59:02;18.50;99.90
15072;DHT22;7635;56.696;13.002;2022-08-19T03:01:41;18.50;99.90
15072;DHT22;7635;56.696;13.002;2022-08-19T03:04:11;18.40;99.90
15072;DHT22;7635;56.696;13.002;2022-08-19T03:06:38;18.40;99.90
15072;DHT22;7635;56.696;13.002;2022-08-19T03:09:06;18.50;99.90
15072;DHT22;7635;56.696;13.002;2022-08-19T03:11:33;18.40;99.90
15072;DHT22;7635;56.696;13.002;2022-08-19T03:14:01;18.40;99.90
15072;DHT22;7635;56.696;13.002;2022-08-19T03:16:31;18.40;99.90
15072;DHT22;7635;56.696;13.002;2022-08-19T03:19:01;18.40;99.90
15072;DHT22;7635;56.696;13.002;2022-08-19T03:21:29;18.40;99.90
15072;DHT22;7635;56.696;13.002;2022-08-19T03:23:58;18.40;99.90
15072;DHT22;7635;56.696;13.002;2022-08-19T03:26:26;18.40;99.90
15072;DHT22;7635;56.696;13.002;2022-08-19T03:28:53;18.40;99.90
15072;DHT22;7635;56.696;13.002;2022-08-19T03:31:21;18.40;99.90
15072;DHT22;7635;56.696;13.002;2022-08-19T03:33:48;18.40;99.90
15072;DHT22;7635;56.696;13.002;2022-08-19T03:36:18;18.30;99.90
15072;DHT22;7635;56.696;13.002;2022-08-19T03:38:48;18.30;99.90
15072;DHT22;7635;56.696;13.002;2022-08-19T03:41:17;18.30;99.90
15072;DHT22;7635;56.696;13.002;2022-08-19T03:43:44;18.30;99.90
15072;DHT22;7635;56.696;13.002;2022-08-19T03:46:13;18.30;99.90
15072;DHT22;7635;56.696;13.002;2022-08-19T03:48:42;18.30;99.90
15072;DHT22;7635;56.696;13.002;2022-08-19T03:51:17;18.30;99.90
15072;DHT22;7635;56.696;13.002;2022-08-19T03:53:45;18.30;99.90
15072;DHT22;7635;56.696;13.002;2022-08-19T03:56:13;18.40;99.90
15072;DHT22;7635;56.696;13.002;2022-08-19T03:58:41;18.40;99.90
15072;DHT22;7635;56.696;13.002;2022-08-19T04:01:10;18.50;99.90
15072;DHT22;7635;56.696;13.002;2022-08-19T04:03:37;18.50;99.90
15072;DHT22;7635;56.696;13.002;2022-08-19T04:06:10;18.50;99.90
15072;DHT22;7635;56.696;13.002;2022-08-19T04:08:39;18.60;99.90
15072;DHT22;7635;56.696;13.002;2022-08-19T04:11:07;18.60;99.90
15072;DHT22;7635;56.696;13.002;2022-08-19T04:13:34;18.70;99.90
15072;DHT22;7635;56.696;13.002;2022-08-19T04:16:02;18.70;99.90
15072;DHT22;7635;56.696;13.002;2022-08-19T04:18:29;18.70;99.90
15072;DHT22;7635;56.696;13.002;2022-08-19T04:20:56;18.70;99.90
15072;DHT22;7635;56.696;13.002;2022-08-19T04:23:23;18.80;99.90
15072;DHT22;7635;56.696;13.002;2022-08-19T04:25:51;18.80;99.90
15072;DHT22;7635;56.696;13.002;2022-08-19T04:28:18;18.80;99.90
15072;DHT22;7635;56.696;13.002;2022-08-19T04:30:49;18.90;99.90
15072;DHT22;7635;56.696;13.002;2022-08-19T04:33:20;18.90;99.90
15072;DHT22;7635;56.696;13.002;2022-08-19T04:35:48;18.90;99.90
15072;DHT22;7635;56.696;13.002;2022-08-19T04:38:16;19.00;99.90
15072;DHT22;7635;56.696;13.002;2022-08-19T04:40:45;19.00;99.90
15072;DHT22;7635;56.696;13.002;2022-08-19T04:43:33;19.00;99.90
15072;DHT22;7635;56.696;13.002;2022-08-19T04:46:04;19.10;99.90
15072;DHT22;7635;56.696;13.002;2022-08-19T04:48:31;19.10;99.90
15072;DHT22;7635;56.696;13.002;2022-08-19T04:50:58;19.10;99.90
15072;DHT22;7635;56.696;13.002;2022-08-19T04:53:26;19.20;99.90
15072;DHT22;7635;56.696;13.002;2022-08-19T04:55:54;19.20;99.90
15072;DHT22;7635;56.696;13.002;2022-08-19T04:58:21;19.20;99.90
15072;DHT22;7635;56.696;13.002;2022-08-19T05:00:50;19.20;99.90
15072;DHT22;7635;56.696;13.002;2022-08-19T05:03:17;19.30;99.90
15072;DHT22;7635;56.696;13.002;2022-08-19T05:05:44;19.30;99.90
15072;DHT22;7635;56.696;13.002;2022-08-19T05:08:14;19.30;99.90
15072;DHT22;7635;56.696;13.002;2022-08-19T05:10:45;19.40;99.90
15072;DHT22;7635;56.696;13.002;2022-08-19T05:13:12;19.40;99.90
15072;DHT22;7635;56.696;13.002;2022-08-19T05:15:40;19.40;99.90
15072;DHT22;7635;56.696;13.002;2022-08-19T05:18:08;19.50;99.90
15072;DHT22;7635;56.696;13.002;2022-08-19T05:20:52;19.50;99.90
15072;DHT22;7635;56.696;13.002;2022-08-19T05:23:36;19.60;99.90
15072;DHT22;7635;56.696;13.002;2022-08-19T05:26:04;19.60;99.90
15072;DHT22;7635;56.696;13.002;2022-08-19T05:28:31;19.60;99.90
15072;DHT22;7635;56.696;13.002;2022-08-19T05:30:58;19.60;99.90
15072;DHT22;7635;56.696;13.002;2022-08-19T05:33:30;19.60;99.90
15072;DHT22;7635;56.696;13.002;2022-08-19T05:35:56;19.70;99.90
15072;DHT22;7635;56.696;13.002;2022-08-19T05:38:24;19.70;99.90
15072;DHT22;7635;56.696;13.002;2022-08-19T05:40:52;19.70;99.90
15072;DHT22;7635;56.696;13.002;2022-08-19T05:43:18;19.80;99.90
15072;DHT22;7635;56.696;13.002;2022-08-19T05:45:45;19.70;99.90
15072;DHT22;7635;56.696;13.002;2022-08-19T05:48:12;19.70;99.90
15072;DHT22;7635;56.696;13.002;2022-08-19T05:50:42;19.80;99.90
15072;DHT22;7635;56.696;13.002;2022-08-19T05:53:09;19.80;99.90
15072;DHT22;7635;56.696;13.002;2022-08-19T05:55:37;19.80;99.90
15072;DHT22;7635;56.696;13.002;2022-08-19T05:58:05;19.90;99.90
15072;DHT22;7635;56.696;13.002;2022-08-19T06:00:32;19.90;99.90
15072;DHT22;7635;56.696;13.002;2022-08-19T06:02:59;19.90;99.90
15072;DHT22;7635;56.696;13.002;2022-08-19T06:05:29;19.90;99.90
15072;DHT22;7635;56.696;13.002;2022-08-19T06:07:57;19.90;99.90
15072;DHT22;7635;56.696;13.002;2022-08-19T06:10:25;19.90;99.90
15072;DHT22;7635;56.696;13.002;2022-08-19T06:12:52;19.90;99.90
15072;DHT22;7635;56.696;13.002;2022-08-19T06:15:19;20.00;99.90
15072;DHT22;7635;56.696;13.002;2022-08-19T06:17:47;20.00;99.90
15072;DHT22;7635;56.696;13.002;2022-08-19T06:20:15;20.00;99.90
15072;DHT22;7635;56.696;13.002;2022-08-19T06:22:46;20.00;99.90
15072;DHT22;7635;56.696;13.002;2022-08-19T06:25:15;20.10;99.90
15072;DHT22;7635;56.696;13.002;2022-08-19T06:27:42;20.20;99.90
15072;DHT22;7635;56.696;13.002;2022-08-19T06:30:10;20.20;99.90
15072;DHT22;7635;56.696;13.002;2022-08-19T06:32:38;20.30;99.90
15072;DHT22;7635;56.696;13.002;2022-08-19T06:35:05;20.30;99.90
15072;DHT22;7635;56.696;13.002;2022-08-19T06:37:32;20.30;99.90
15072;DHT22;7635;56.696;13.002;2022-08-19T06:39:59;20.40;99.90
15072;DHT22;7635;56.696;13.002;2022-08-19T06:42:27;20.40;99.90
15072;DHT22;7635;56.696;13.002;2022-08-19T06:44:54;20.40;99.90
15072;DHT22;7635;56.696;13.002;2022-08-19T06:47:21;20.50;99.90
15072;DHT22;7635;56.696;13.002;2022-08-19T06:49:48;20.50;99.90
15072;DHT22;7635;56.696;13.002;2022-08-19T06:52:15;20.60;99.90
15072;DHT22;7635;56.696;13.002;2022-08-19T06:54:42;20.60;99.90
15072;DHT22;7635;56.696;13.002;2022-08-19T06:57:09;20.70;99.90
15072;DHT22;7635;56.696;13.002;2022-08-19T06:59:40;20.70;99.90
15072;DHT22;7635;56.696;13.002;2022-08-19T07:02:07;20.80;99.90
15072;DHT22;7635;56.696;13.002;2022-08-19T07:04:35;20.80;99.90
15072;DHT22;7635;56.696;13.002;2022-08-19T07:07:05;20.90;99.90
15072;DHT22;7635;56.696;13.002;2022-08-19T07:09:35;21.00;99.90
15072;DHT22;7635;56.696;13.002;2022-08-19T07:12:05;21.20;99.90
15072;DHT22;7635;56.696;13.002;2022-08-19T07:14:32;21.20;99.90
15072;DHT22;7635;56.696;13.002;2022-08-19T07:17:05;21.30;99.90
15072;DHT22;7635;56.696;13.002;2022-08-19T07:19:33;21.30;99.90
15072;DHT22;7635;56.696;13.002;2022-08-19T07:22:02;21.30;99.90
15072;DHT22;7635;56.696;13.002;2022-08-19T07:24:30;21.30;99.90
15072;DHT22;7635;56.696;13.002;2022-08-19T07:27:00;21.40;99.90
15072;DHT22;7635;56.696;13.002;2022-08-19T07:29:30;21.50;99.90
15072;DHT22;7635;56.696;13.002;2022-08-19T07:31:59;21.50;99.90
15072;DHT22;7635;56.696;13.002;2022-08-19T07:34:29;21.50;99.90
15072;DHT22;7635;56.696;13.002;2022-08-19T07:36:56;21.60;99.90
15072;DHT22;7635;56.696;13.002;2022-08-19T07:39:25;21.60;99.90
15072;DHT22;7635;56.696;13.002;2022-08-19T07:41:53;21.70;99.90
15072;DHT22;7635;56.696;13.002;2022-08-19T07:44:20;21.80;99.90
15072;DHT22;7635;56.696;13.002;2022-08-19T07:46:51;21.90;99.90
15072;DHT22;7635;56.696;13.002;2022-08-19T07:49:18;22.10;99.90
15072;DHT22;7635;56.696;13.002;2022-08-19T07:51:49;22.20;99.90
15072;DHT22;7635;56.696;13.002;2022-08-19T07:54:16;22.30;99.90
15072;DHT22;7635;56.696;13.002;2022-08-19T07:56:43;22.30;99.90
15072;DHT22;7635;56.696;13.002;2022-08-19T07:59:10;22.30;99.90
15072;DHT22;7635;56.696;13.002;2022-08-19T08:01:38;22.30;99.90
15072;DHT22;7635;56.696;13.002;2022-08-19T08:04:06;22.30;99.90
15072;DHT22;7635;56.696;13.002;2022-08-19T08:06:52;22.30;99.90
15072;DHT22;7635;56.696;13.002;2022-08-19T08:09:39;22.40;99.90
15072;DHT22;7635;56.696;13.002;2022-08-19T08:12:08;22.50;99.90
15072;DHT22;7635;56.696;13.002;2022-08-19T08:14:38;22.70;99.90
15072;DHT22;7635;56.696;13.002;2022-08-19T08:17:07;23.00;99.90
15072;DHT22;7635;56.696;13.002;2022-08-19T08:19:35;23.20;99.90
15072;DHT22;7635;56.696;13.002;2022-08-19T08:22:04;23.40;99.90
15072;DHT22;7635;56.696;13.002;2022-08-19T08:24:32;23.50;99.90
15072;DHT22;7635;56.696;13.002;2022-08-19T08:27:01;23.70;99.90
15072;DHT22;7635;56.696;13.002;2022-08-19T08:29:30;23.70;99.90
15072;DHT22;7635;56.696;13.002;2022-08-19T08:31:57;23.90;99.90
15072;DHT22;7635;56.696;13.002;2022-08-19T08:34:24;24.20;99.90
15072;DHT22;7635;56.696;13.002;2022-08-19T08:36:50;24.40;99.90
15072;DHT22;7635;56.696;13.002;2022-08-19T08:39:20;24.30;99.90
15072;DHT22;7635;56.696;13.002;2022-08-19T08:41:51;24.30;99.90
15072;DHT22;7635;56.696;13.002;2022-08-19T08:44:23;24.30;99.90
15072;DHT22;7635;56.696;13.002;2022-08-19T08:46:54;24.50;99.90
15072;DHT22;7635;56.696;13.002;2022-08-19T08:49:31;24.70;99.90
15072;DHT22;7635;56.696;13.002;2022-08-19T08:52:04;24.70;99.90
15072;DHT22;7635;56.696;13.002;2022-08-19T08:54:37;24.80;99.90
15072;DHT22;7635;56.696;13.002;2022-08-19T08:57:10;24.90;99.90
15072;DHT22;7635;56.696;13.002;2022-08-19T08:59:40;25.00;99.90
15072;DHT22;7635;56.696;13.002;2022-08-19T09:02:08;25.10;99.90
15072;DHT22;7635;56.696;13.002;2022-08-19T09:04:35;25.20;99.90
15072;DHT22;7635;56.696;13.002;2022-08-19T09:07:17;25.30;99.90
15072;DHT22;7635;56.696;13.002;2022-08-19T09:09:51;25.40;99.90
15072;DHT22;7635;56.696;13.002;2022-08-19T09:12:26;25.60;99.90
15072;DHT22;7635;56.696;13.002;2022-08-19T09:15:00;25.70;99.90
15072;DHT22;7635;56.696;13.002;2022-08-19T09:17:31;25.80;99.90
15072;DHT22;7635;56.696;13.002;2022-08-19T09:20:00;25.70;99.90
15072;DHT22;7635;56.696;13.002;2022-08-19T09:22:30;25.80;99.90
15072;DHT22;7635;56.696;13.002;2022-08-19T09:24:58;25.80;99.90
15072;DHT22;7635;56.696;13.002;2022-08-19T09:27:27;25.80;99.90
15072;DHT22;7635;56.696;13.002;2022-08-19T09:29:54;26.00;99.90
15072;DHT22;7635;56.696;13.002;2022-08-19T09:32:21;26.40;99.90
15072;DHT22;7635;56.696;13.002;2022-08-19T09:34:48;26.70;99.90
15072;DHT22;7635;56.696;13.002;2022-08-19T09:37:15;26.90;99.90
15072;DHT22;7635;56.696;13.002;2022-08-19T09:39:42;26.80;99.90
15072;DHT22;7635;56.696;13.002;2022-08-19T09:42:10;26.80;99.90
15072;DHT22;7635;56.696;13.002;2022-08-19T09:44:39;26.70;99.90
15072;DHT22;7635;56.696;13.002;2022-08-19T09:47:07;26.60;99.90
15072;DHT22;7635;56.696;13.002;2022-08-19T09:49:35;26.60;99.90
15072;DHT22;7635;56.696;13.002;2022-08-19T09:52:03;26.60;99.90
15072;DHT22;7635;56.696;13.002;2022-08-19T09:54:30;26.70;99.90
15072;DHT22;7635;56.696;13.002;2022-08-19T09:56:58;26.80;99.90
15072;DHT22;7635;56.696;13.002;2022-08-19T09:59:28;26.90;99.90
15072;DHT22;7635;56.696;13.002;2022-08-19T10:01:56;27.50;99.90
15072;DHT22;7635;56.696;13.002;2022-08-19T10:04:22;28.00;99.90
15072;DHT22;7635;56.696;13.002;2022-08-19T10:07:09;28.60;99.90
15072;DHT22;7635;56.696;13.002;2022-08-19T10:09:36;29.20;99.90
15072;DHT22;7635;56.696;13.002;2022-08-19T10:12:04;29.50;99.90
15072;DHT22;7635;56.696;13.002;2022-08-19T10:14:33;29.60;99.90
15072;DHT22;7635;56.696;13.002;2022-08-19T10:17:01;29.70;99.90
15072;DHT22;7635;56.696;13.002;2022-08-19T10:19:28;29.60;99.90
15072;DHT22;7635;56.696;13.002;2022-08-19T10:21:57;29.40;99.90
15072;DHT22;7635;56.696;13.002;2022-08-19T10:24:24;29.10;99.90
15072;DHT22;7635;56.696;13.002;2022-08-19T10:26:52;28.90;99.90
15072;DHT22;7635;56.696;13.002;2022-08-19T10:29:19;28.60;99.90
15072;DHT22;7635;56.696;13.002;2022-08-19T10:31:48;28.40;99.90
15072;DHT22;7635;56.696;13.002;2022-08-19T10:34:14;28.30;99.90
15072;DHT22;7635;56.696;13.002;2022-08-19T10:36:42;28.20;99.90
15072;DHT22;7635;56.696;13.002;2022-08-19T10:39:09;28.00;99.90
15072;DHT22;7635;56.696;13.002;2022-08-19T10:41:39;27.90;99.90
15072;DHT22;7635;56.696;13.002;2022-08-19T10:44:11;27.80;99.90
15072;DHT22;7635;56.696;13.002;2022-08-19T10:46:40;27.80;99.90
15072;DHT22;7635;56.696;13.002;2022-08-19T10:49:10;27.80;99.90
15072;DHT22;7635;56.696;13.002;2022-08-19T10:51:37;27.90;99.90
15072;DHT22;7635;56.696;13.002;2022-08-19T10:54:22;28.00;99.90
15072;DHT22;7635;56.696;13.002;2022-08-19T10:56:48;28.50;99.90
15072;DHT22;7635;56.696;13.002;2022-08-19T10:59:18;28.80;99.90
15072;DHT22;7635;56.696;13.002;2022-08-19T11:01:48;28.80;99.90
15072;DHT22;7635;56.696;13.002;2022-08-19T11:04:17;28.60;99.90
15072;DHT22;7635;56.696;13.002;2022-08-19T11:06:45;28.30;99.90
15072;DHT22;7635;56.696;13.002;2022-08-19T11:09:13;28.10;99.90
15072;DHT22;7635;56.696;13.002;2022-08-19T11:11:41;27.90;99.90
15072;DHT22;7635;56.696;13.002;2022-08-19T11:14:09;27.80;99.90
15072;DHT22;7635;56.696;13.002;2022-08-19T11:16:37;27.60;99.90
15072;DHT22;7635;56.696;13.002;2022-08-19T11:19:05;27.50;99.90
15072;DHT22;7635;56.696;13.002;2022-08-19T11:21:36;27.40;99.90
15072;DHT22;7635;56.696;13.002;2022-08-19T11:24:06;27.30;99.90
15072;DHT22;7635;56.696;13.002;2022-08-19T11:26:35;27.20;99.90
15072;DHT22;7635;56.696;13.002;2022-08-19T11:29:03;27.10;99.90
15072;DHT22;7635;56.696;13.002;2022-08-19T11:31:33;27.00;99.90
15072;DHT22;7635;56.696;13.002;2022-08-19T11:34:04;26.90;99.90
15072;DHT22;7635;56.696;13.002;2022-08-19T11:36:32;26.80;99.90
15072;DHT22;7635;56.696;13.002;2022-08-19T11:39:03;26.70;99.90
15072;DHT22;7635;56.696;13.002;2022-08-19T11:41:30;26.60;99.90
15072;DHT22;7635;56.696;13.002;2022-08-19T11:43:57;26.50;99.90
15072;DHT22;7635;56.696;13.002;2022-08-19T11:46:25;26.50;99.90
15072;DHT22;7635;56.696;13.002;2022-08-19T11:48:54;26.50;99.90
15072;DHT22;7635;56.696;13.002;2022-08-19T11:51:23;26.40;99.90
15072;DHT22;7635;56.696;13.002;2022-08-19T11:53:51;26.40;99.90
15072;DHT22;7635;56.696;13.002;2022-08-19T11:56:19;26.30;99.90
15072;DHT22;7635;56.696;13.002;2022-08-19T11:58:46;26.30;99.90
15072;DHT22;7635;56.696;13.002;2022-08-19T12:01:16;26.20;99.90
15072;DHT22;7635;56.696;13.002;2022-08-19T12:03:45;26.20;99.90
15072;DHT22;7635;56.696;13.002;2022-08-19T12:06:15;26.20;99.90
15072;DHT22;7635;56.696;13.002;2022-08-19T12:08:45;26.20;99.90
15072;DHT22;7635;56.696;13.002;2022-08-19T12:11:13;26.10;99.90
15072;DHT22;7635;56.696;13.002;2022-08-19T12:13:41;26.10;99.90
15072;DHT22;7635;56.696;13.002;2022-08-19T12:16:11;26.00;99.90
15072;DHT22;7635;56.696;13.002;2022-08-19T12:18:38;26.00;99.90
15072;DHT22;7635;56.696;13.002;2022-08-19T12:21:07;25.90;99.90
15072;DHT22;7635;56.696;13.002;2022-08-19T12:23:35;25.80;99.90
15072;DHT22;7635;56.696;13.002;2022-08-19T12:26:03;25.80;99.90
15072;DHT22;7635;56.696;13.002;2022-08-19T12:28:30;25.70;99.90
15072;DHT22;7635;56.696;13.002;2022-08-19T12:30:59;25.60;99.90
15072;DHT22;7635;56.696;13.002;2022-08-19T12:33:26;25.60;99.90
15072;DHT22;7635;56.696;13.002;2022-08-19T12:35:54;25.40;99.90
15072;DHT22;7635;56.696;13.002;2022-08-19T12:38:21;25.20;99.90
15072;DHT22;7635;56.696;13.002;2022-08-19T12:40:49;25.10;99.90
15072;DHT22;7635;56.696;13.002;2022-08-19T12:43:17;25.10;99.90
15072;DHT22;7635;56.696;13.002;2022-08-19T12:45:45;25.00;99.90
15072;DHT22;7635;56.696;13.002;2022-08-19T12:48:13;24.90;99.90
15072;DHT22;7635;56.696;13.002;2022-08-19T12:50:41;24.80;99.90
15072;DHT22;7635;56.696;13.002;2022-08-19T12:53:08;24.70;99.90
15072;DHT22;7635;56.696;13.002;2022-08-19T12:55:34;24.70;99.90
15072;DHT22;7635;56.696;13.002;2022-08-19T12:58:01;24.50;99.90
15072;DHT22;7635;56.696;13.002;2022-08-19T13:00:29;24.40;99.90
15072;DHT22;7635;56.696;13.002;2022-08-19T13:02:56;24.30;99.90
15072;DHT22;7635;56.696;13.002;2022-08-19T13:05:26;24.20;99.90
15072;DHT22;7635;56.696;13.002;2022-08-19T13:07:55;24.10;99.90
15072;DHT22;7635;56.696;13.002;2022-08-19T13:10:23;24.00;99.90
15072;DHT22;7635;56.696;13.002;2022-08-19T13:12:51;24.00;99.90
15072;DHT22;7635;56.696;13.002;2022-08-19T13:15:19;24.00;99.90
15072;DHT22;7635;56.696;13.002;2022-08-19T13:17:47;24.00;99.90
15072;DHT22;7635;56.696;13.002;2022-08-19T13:20:15;23.90;99.90
15072;DHT22;7635;56.696;13.002;2022-08-19T13:22:44;23.80;99.90
15072;DHT22;7635;56.696;13.002;2022-08-19T13:25:11;23.80;99.90
15072;DHT22;7635;56.696;13.002;2022-08-19T13:27:39;23.80;99.90
15072;DHT22;7635;56.696;13.002;2022-08-19T13:30:08;23.70;99.90
15072;DHT22;7635;56.696;13.002;2022-08-19T13:32:53;23.60;99.90
15072;DHT22;7635;56.696;13.002;2022-08-19T13:35:41;23.60;99.90
15072;DHT22;7635;56.696;13.002;2022-08-19T13:38:10;23.50;99.90
15072;DHT22;7635;56.696;13.002;2022-08-19T13:40:39;23.50;99.90
15072;DHT22;7635;56.696;13.002;2022-08-19T13:43:06;23.50;99.90
15072;DHT22;7635;56.696;13.002;2022-08-19T13:45:34;23.50;99.90
15072;DHT22;7635;56.696;13.002;2022-08-19T13:48:02;23.50;99.90
15072;DHT22;7635;56.696;13.002;2022-08-19T13:50:32;23.50;99.90
15072;DHT22;7635;56.696;13.002;2022-08-19T13:53:00;23.50;99.90
15072;DHT22;7635;56.696;13.002;2022-08-19T13:55:29;23.40;99.90
15072;DHT22;7635;56.696;13.002;2022-08-19T13:57:58;23.40;99.90
15072;DHT22;7635;56.696;13.002;2022-08-19T14:00:26;23.40;99.90
15072;DHT22;7635;56.696;13.002;2022-08-19T14:02:55;23.40;99.90
15072;DHT22;7635;56.696;13.002;2022-08-19T14:05:24;23.40;99.90
15072;DHT22;7635;56.696;13.002;2022-08-19T14:07:51;23.50;99.90
15072;DHT22;7635;56.696;13.002;2022-08-19T14:10:19;23.60;99.90
15072;DHT22;7635;56.696;13.002;2022-08-19T14:12:47;23.60;99.90
15072;DHT22;7635;56.696;13.002;2022-08-19T14:15:15;23.60;99.90
15072;DHT22;7635;56.696;13.002;2022-08-19T14:17:44;23.70;99.90
15072;DHT22;7635;56.696;13.002;2022-08-19T14:20:13;23.70;99.90
15072;DHT22;7635;56.696;13.002;2022-08-19T14:22:42;23.70;99.90
15072;DHT22;7635;56.696;13.002;2022-08-19T14:25:12;23.80;99.90
15072;DHT22;7635;56.696;13.002;2022-08-19T14:27:40;23.80;99.90
15072;DHT22;7635;56.696;13.002;2022-08-19T14:30:12;23.80;99.90
15072;DHT22;7635;56.696;13.002;2022-08-19T14:32:39;23.80;99.90
15072;DHT22;7635;56.696;13.002;2022-08-19T14:35:09;23.80;99.90
15072;DHT22;7635;56.696;13.002;2022-08-19T14:37:38;23.90;99.90
15072;DHT22;7635;56.696;13.002;2022-08-19T14:40:06;24.00;99.90
15072;DHT22;7635;56.696;13.002;2022-08-19T14:42:33;24.00;99.90
15072;DHT22;7635;56.696;13.002;2022-08-19T14:45:01;24.00;99.90
15072;DHT22;7635;56.696;13.002;2022-08-19T14:47:32;24.00;99.90
15072;DHT22;7635;56.696;13.002;2022-08-19T14:49:59;24.00;99.90
15072;DHT22;7635;56.696;13.002;2022-08-19T14:52:26;24.00;99.90
15072;DHT22;7635;56.696;13.002;2022-08-19T14:54:52;24.00;99.90
15072;DHT22;7635;56.696;13.002;2022-08-19T14:57:19;24.00;99.90
15072;DHT22;7635;56.696;13.002;2022-08-19T14:59:46;24.00;99.90
15072;DHT22;7635;56.696;13.002;2022-08-19T15:02:14;24.00;99.90
15072;DHT22;7635;56.696;13.002;2022-08-19T15:04:42;24.00;99.90
15072;DHT22;7635;56.696;13.002;2022-08-19T15:07:09;24.00;99.90
15072;DHT22;7635;56.696;13.002;2022-08-19T15:09:36;24.00;99.90
15072;DHT22;7635;56.696;13.002;2022-08-19T15:12:03;24.00;99.90
15072;DHT22;7635;56.696;13.002;2022-08-19T15:14:30;24.00;99.90
15072;DHT22;7635;56.696;13.002;2022-08-19T15:17:00;24.00;99.90
15072;DHT22;7635;56.696;13.002;2022-08-19T15:19:28;24.10;99.90
15072;DHT22;7635;56.696;13.002;2022-08-19T15:21:56;24.00;99.90
15072;DHT22;7635;56.696;13.002;2022-08-19T15:24:25;24.00;99.90
15072;DHT22;7635;56.696;13.002;2022-08-19T15:26:52;24.00;99.90
15072;DHT22;7635;56.696;13.002;2022-08-19T15:29:19;24.10;99.90
15072;DHT22;7635;56.696;13.002;2022-08-19T15:31:45;24.10;99.90
15072;DHT22;7635;56.696;13.002;2022-08-19T15:34:12;24.10;99.90
15072;DHT22;7635;56.696;13.002;2022-08-19T15:36:39;24.10;99.90
15072;DHT22;7635;56.696;13.002;2022-08-19T15:39:08;24.10;99.90